sensor_id;sensor_type;location;lat;lon;timestamp;P1;durP1;ratioP1;P2;durP2;ratioP2
73239;SDS011;61452;40.054;4.110;2023-08-17T00:01:13;13.50;;;6.88;;
73239;SDS011;61452;40.054;4.110;2023-08-17T00:06:16;13.52;;;6.95;;
73239;SDS011;61452;40.054;4.110;2023-08-17T00:11:18;14.35;;;6.88;;
73239;SDS011;61452;40.054;4.110;2023-08-17T00:16:20;12.15;;;6.93;;
73239;SDS011;61452;40.054;4.110;2023-08-17T00:21:24;17.73;;;7.00;;
73239;SDS011;61452;40.054;4.110;2023-08-17T00:26:26;13.25;;;6.65;;
73239;SDS011;61452;40.054;4.110;2023-08-17T00:31:29;13.77;;;7.25;;
73239;SDS011;61452;40.054;4.110;2023-08-17T00:36:32;10.48;;;7.05;;
73239;SDS011;61452;40.054;4.110;2023-08-17T00:41:34;13.65;;;7.72;;
73239;SDS011;61452;40.054;4.110;2023-08-17T00:46:37;11.38;;;7.40;;
73239;SDS011;61452;40.054;4.110;2023-08-17T00:51:40;9.93;;;6.72;;
73239;SDS011;61452;40.054;4.110;2023-08-17T00:56:42;11.88;;;6.78;;
73239;SDS011;61452;40.054;4.110;2023-08-17T01:01:46;12.75;;;7.15;;
73239;SDS011;61452;40.054;4.110;2023-08-17T01:06:49;19.08;;;7.65;;
73239;SDS011;61452;40.054;4.110;2023-08-17T01:12:00;13.10;;;7.07;;
73239;SDS011;61452;40.054;4.110;2023-08-17T01:17:19;17.65;;;7.03;;
73239;SDS011;61452;40.054;4.110;2023-08-17T01:22:27;17.52;;;7.75;;
73239;SDS011;61452;40.054;4.110;2023-08-17T01:27:42;18.55;;;6.88;;
73239;SDS011;61452;40.054;4.110;2023-08-17T01:38:02;11.77;;;6.82;;
73239;SDS011;61452;40.054;4.110;2023-08-17T01:43:09;14.40;;;7.00;;
73239;SDS011;61452;40.054;4.110;2023-08-17T01:48:13;13.73;;;6.95;;
73239;SDS011;61452;40.054;4.110;2023-08-17T01:53:15;33.90;;;9.52;;
73239;SDS011;61452;40.054;4.110;2023-08-17T01:58:17;24.08;;;9.68;;
73239;SDS011;61452;40.054;4.110;2023-08-17T02:03:20;37.97;;;10.13;;
73239;SDS011;61452;40.054;4.110;2023-08-17T02:08:22;28.30;;;9.75;;
73239;SDS011;61452;40.054;4.110;2023-08-17T02:13:26;31.95;;;9.88;;
73239;SDS011;61452;40.054;4.110;2023-08-17T02:18:36;30.63;;;8.70;;
73239;SDS011;61452;40.054;4.110;2023-08-17T02:23:39;21.65;;;7.85;;
73239;SDS011;61452;40.054;4.110;2023-08-17T02:28:41;18.73;;;8.18;;
73239;SDS011;61452;40.054;4.110;2023-08-17T02:33:43;15.38;;;7.60;;
73239;SDS011;61452;40.054;4.110;2023-08-17T02:38:46;16.50;;;7.53;;
73239;SDS011;61452;40.054;4.110;2023-08-17T02:43:48;16.17;;;6.78;;
73239;SDS011;61452;40.054;4.110;2023-08-17T02:48:50;15.23;;;7.20;;
73239;SDS011;61452;40.054;4.110;2023-08-17T02:53:53;18.80;;;7.70;;
73239;SDS011;61452;40.054;4.110;2023-08-17T02:58:55;15.38;;;7.43;;
73239;SDS011;61452;40.054;4.110;2023-08-17T03:03:57;11.38;;;6.85;;
73239;SDS011;61452;40.054;4.110;2023-08-17T03:09:00;12.93;;;7.63;;
73239;SDS011;61452;40.054;4.110;2023-08-17T03:14:02;9.63;;;6.75;;
73239;SDS011;61452;40.054;4.110;2023-08-17T03:19:05;11.07;;;6.88;;
73239;SDS011;61452;40.054;4.110;2023-08-17T03:24:09;19.10;;;7.40;;
73239;SDS011;61452;40.054;4.110;2023-08-17T03:29:12;13.45;;;6.75;;
73239;SDS011;61452;40.054;4.110;2023-08-17T03:34:14;13.20;;;7.13;;
73239;SDS011;61452;40.054;4.110;2023-08-17T03:39:16;13.55;;;6.93;;
73239;SDS011;61452;40.054;4.110;2023-08-17T03:44:19;12.80;;;6.63;;
73239;SDS011;61452;40.054;4.110;2023-08-17T03:49:22;13.70;;;7.10;;
73239;SDS011;61452;40.054;4.110;2023-08-17T03:54:24;11.57;;;7.38;;
73239;SDS011;61452;40.054;4.110;2023-08-17T03:59:27;13.68;;;7.55;;
73239;SDS011;61452;40.054;4.110;2023-08-17T04:04:29;12.38;;;7.07;;
73239;SDS011;61452;40.054;4.110;2023-08-17T04:09:32;15.95;;;7.68;;
73239;SDS011;61452;40.054;4.110;2023-08-17T04:14:35;19.35;;;7.88;;
73239;SDS011;61452;40.054;4.110;2023-08-17T04:19:37;16.73;;;7.40;;
73239;SDS011;61452;40.054;4.110;2023-08-17T04:24:42;13.65;;;7.40;;
73239;SDS011;61452;40.054;4.110;2023-08-17T04:29:45;11.85;;;7.05;;
73239;SDS011;61452;40.054;4.110;2023-08-17T04:34:48;15.52;;;7.50;;
73239;SDS011;61452;40.054;4.110;2023-08-17T04:39:51;15.65;;;7.78;;
73239;SDS011;61452;40.054;4.110;2023-08-17T04:44:55;12.45;;;7.40;;
73239;SDS011;61452;40.054;4.110;2023-08-17T04:49:59;14.40;;;8.27;;
73239;SDS011;61452;40.054;4.110;2023-08-17T04:55:02;12.38;;;8.15;;
73239;SDS011;61452;40.054;4.110;2023-08-17T05:00:06;14.52;;;7.65;;
73239;SDS011;61452;40.054;4.110;2023-08-17T05:05:12;12.90;;;7.05;;
73239;SDS011;61452;40.054;4.110;2023-08-17T05:10:14;13.13;;;7.18;;
73239;SDS011;61452;40.054;4.110;2023-08-17T05:15:17;13.98;;;7.25;;
73239;SDS011;61452;40.054;4.110;2023-08-17T05:20:19;13.23;;;7.13;;
73239;SDS011;61452;40.054;4.110;2023-08-17T05:25:22;12.02;;;7.47;;
73239;SDS011;61452;40.054;4.110;2023-08-17T05:30:25;20.65;;;8.55;;
73239;SDS011;61452;40.054;4.110;2023-08-17T05:35:27;16.80;;;9.40;;
73239;SDS011;61452;40.054;4.110;2023-08-17T05:40:30;21.05;;;11.55;;
73239;SDS011;61452;40.054;4.110;2023-08-17T05:45:32;20.27;;;13.00;;
73239;SDS011;61452;40.054;4.110;2023-08-17T05:50:42;17.25;;;11.68;;
73239;SDS011;61452;40.054;4.110;2023-08-17T05:55:45;17.80;;;9.68;;
73239;SDS011;61452;40.054;4.110;2023-08-17T06:00:47;17.48;;;8.18;;
73239;SDS011;61452;40.054;4.110;2023-08-17T06:05:52;18.35;;;8.07;;
73239;SDS011;61452;40.054;4.110;2023-08-17T06:10:54;17.42;;;8.75;;
73239;SDS011;61452;40.054;4.110;2023-08-17T06:15:57;12.93;;;7.70;;
73239;SDS011;61452;40.054;4.110;2023-08-17T06:20:59;20.08;;;8.27;;
73239;SDS011;61452;40.054;4.110;2023-08-17T06:26:01;16.98;;;8.07;;
73239;SDS011;61452;40.054;4.110;2023-08-17T06:31:04;10.68;;;7.55;;
73239;SDS011;61452;40.054;4.110;2023-08-17T06:36:07;11.18;;;7.32;;
73239;SDS011;61452;40.054;4.110;2023-08-17T06:41:09;11.50;;;7.45;;
73239;SDS011;61452;40.054;4.110;2023-08-17T06:46:11;13.98;;;7.35;;
73239;SDS011;61452;40.054;4.110;2023-08-17T06:51:13;15.10;;;8.88;;
73239;SDS011;61452;40.054;4.110;2023-08-17T06:56:16;13.65;;;7.53;;
73239;SDS011;61452;40.054;4.110;2023-08-17T07:01:18;17.88;;;9.38;;
73239;SDS011;61452;40.054;4.110;2023-08-17T07:06:20;13.18;;;8.20;;
73239;SDS011;61452;40.054;4.110;2023-08-17T07:11:22;13.10;;;7.05;;
73239;SDS011;61452;40.054;4.110;2023-08-17T07:16:25;10.57;;;6.55;;
73239;SDS011;61452;40.054;4.110;2023-08-17T07:21:27;12.18;;;6.53;;
73239;SDS011;61452;40.054;4.110;2023-08-17T07:26:30;12.63;;;6.55;;
73239;SDS011;61452;40.054;4.110;2023-08-17T07:31:32;11.00;;;6.10;;
73239;SDS011;61452;40.054;4.110;2023-08-17T07:36:35;10.48;;;6.03;;
73239;SDS011;61452;40.054;4.110;2023-08-17T07:41:37;10.85;;;6.47;;
73239;SDS011;61452;40.054;4.110;2023-08-17T07:46:40;16.27;;;6.80;;
73239;SDS011;61452;40.054;4.110;2023-08-17T07:51:42;15.80;;;6.50;;
73239;SDS011;61452;40.054;4.110;2023-08-17T07:56:44;13.80;;;6.38;;
73239;SDS011;61452;40.054;4.110;2023-08-17T08:01:46;11.02;;;6.70;;
73239;SDS011;61452;40.054;4.110;2023-08-17T08:06:49;13.20;;;7.22;;
73239;SDS011;61452;40.054;4.110;2023-08-17T08:11:51;13.07;;;6.35;;
73239;SDS011;61452;40.054;4.110;2023-08-17T08:16:53;14.27;;;6.00;;
73239;SDS011;61452;40.054;4.110;2023-08-17T08:21:55;13.30;;;6.45;;
73239;SDS011;61452;40.054;4.110;2023-08-17T08:26:57;12.38;;;6.45;;
73239;SDS011;61452;40.054;4.110;2023-08-17T08:32:00;14.18;;;6.82;;
73239;SDS011;61452;40.054;4.110;2023-08-17T08:37:04;14.80;;;6.72;;
73239;SDS011;61452;40.054;4.110;2023-08-17T08:42:06;14.07;;;8.77;;
73239;SDS011;61452;40.054;4.110;2023-08-17T08:47:09;10.55;;;6.55;;
73239;SDS011;61452;40.054;4.110;2023-08-17T08:52:12;12.98;;;7.38;;
73239;SDS011;61452;40.054;4.110;2023-08-17T08:57:21;11.23;;;7.35;;
73239;SDS011;61452;40.054;4.110;2023-08-17T09:02:23;16.80;;;7.63;;
73239;SDS011;61452;40.054;4.110;2023-08-17T09:07:28;17.88;;;7.07;;
73239;SDS011;61452;40.054;4.110;2023-08-17T09:12:32;12.20;;;6.95;;
73239;SDS011;61452;40.054;4.110;2023-08-17T09:17:42;16.27;;;7.20;;
73239;SDS011;61452;40.054;4.110;2023-08-17T09:22:45;13.13;;;7.63;;
73239;SDS011;61452;40.054;4.110;2023-08-17T09:27:47;11.55;;;6.85;;
73239;SDS011;61452;40.054;4.110;2023-08-17T09:32:49;18.38;;;6.95;;
73239;SDS011;61452;40.054;4.110;2023-08-17T09:37:51;15.63;;;8.13;;
73239;SDS011;61452;40.054;4.110;2023-08-17T09:42:54;11.73;;;7.07;;
73239;SDS011;61452;40.054;4.110;2023-08-17T09:47:59;14.93;;;6.95;;
73239;SDS011;61452;40.054;4.110;2023-08-17T09:53:04;12.88;;;6.90;;
73239;SDS011;61452;40.054;4.110;2023-08-17T09:58:06;17.25;;;13.77;;
73239;SDS011;61452;40.054;4.110;2023-08-17T10:03:09;16.48;;;8.50;;
73239;SDS011;61452;40.054;4.110;2023-08-17T10:08:13;12.65;;;7.22;;
73239;SDS011;61452;40.054;4.110;2023-08-17T10:13:31;13.43;;;7.10;;
73239;SDS011;61452;40.054;4.110;2023-08-17T10:18:53;15.18;;;8.13;;
73239;SDS011;61452;40.054;4.110;2023-08-17T10:24:07;11.23;;;7.13;;
73239;SDS011;61452;40.054;4.110;2023-08-17T10:34:17;14.65;;;7.50;;
73239;SDS011;61452;40.054;4.110;2023-08-17T10:39:25;14.80;;;8.50;;
73239;SDS011;61452;40.054;4.110;2023-08-17T10:49:56;15.57;;;8.48;;
73239;SDS011;61452;40.054;4.110;2023-08-17T10:55:00;13.23;;;7.60;;
73239;SDS011;61452;40.054;4.110;2023-08-17T11:05:35;11.23;;;7.60;;
73239;SDS011;61452;40.054;4.110;2023-08-17T11:21:11;13.00;;;7.35;;
73239;SDS011;61452;40.054;4.110;2023-08-17T11:26:19;17.45;;;12.55;;
73239;SDS011;61452;40.054;4.110;2023-08-17T11:31:21;40.65;;;30.52;;
73239;SDS011;61452;40.054;4.110;2023-08-17T11:36:24;41.92;;;22.60;;
73239;SDS011;61452;40.054;4.110;2023-08-17T11:41:26;29.75;;;22.80;;
73239;SDS011;61452;40.054;4.110;2023-08-17T11:46:28;19.00;;;10.32;;
73239;SDS011;61452;40.054;4.110;2023-08-17T11:51:31;12.90;;;7.95;;
73239;SDS011;61452;40.054;4.110;2023-08-17T11:56:34;17.05;;;7.97;;
73239;SDS011;61452;40.054;4.110;2023-08-17T12:01:36;35.42;;;24.77;;
73239;SDS011;61452;40.054;4.110;2023-08-17T12:11:45;28.48;;;14.68;;
73239;SDS011;61452;40.054;4.110;2023-08-17T12:16:48;25.17;;;13.45;;
73239;SDS011;61452;40.054;4.110;2023-08-17T12:21:51;97.32;;;28.77;;
73239;SDS011;61452;40.054;4.110;2023-08-17T12:26:56;39.67;;;14.32;;
73239;SDS011;61452;40.054;4.110;2023-08-17T12:32:00;27.15;;;13.18;;
73239;SDS011;61452;40.054;4.110;2023-08-17T12:37:04;20.48;;;11.25;;
73239;SDS011;61452;40.054;4.110;2023-08-17T12:42:06;22.13;;;9.57;;
73239;SDS011;61452;40.054;4.110;2023-08-17T12:47:12;17.75;;;10.15;;
73239;SDS011;61452;40.054;4.110;2023-08-17T12:52:15;21.85;;;10.38;;
73239;SDS011;61452;40.054;4.110;2023-08-17T12:57:17;18.02;;;9.90;;
73239;SDS011;61452;40.054;4.110;2023-08-17T13:02:19;56.85;;;42.55;;
73239;SDS011;61452;40.054;4.110;2023-08-17T13:12:24;92.45;;;73.75;;
73239;SDS011;61452;40.054;4.110;2023-08-17T13:17:27;42.95;;;32.67;;
73239;SDS011;61452;40.054;4.110;2023-08-17T13:22:29;30.50;;;19.92;;
73239;SDS011;61452;40.054;4.110;2023-08-17T13:27:31;20.27;;;14.93;;
73239;SDS011;61452;40.054;4.110;2023-08-17T13:32:34;21.55;;;14.27;;
73239;SDS011;61452;40.054;4.110;2023-08-17T13:37:37;17.33;;;10.98;;
73239;SDS011;61452;40.054;4.110;2023-08-17T13:42:39;18.90;;;11.10;;
73239;SDS011;61452;40.054;4.110;2023-08-17T13:47:41;20.33;;;11.48;;
73239;SDS011;61452;40.054;4.110;2023-08-17T13:52:44;36.70;;;27.30;;
73239;SDS011;61452;40.054;4.110;2023-08-17T13:57:46;105.63;;;84.25;;
73239;SDS011;61452;40.054;4.110;2023-08-17T14:02:49;52.00;;;39.33;;
73239;SDS011;61452;40.054;4.110;2023-08-17T14:07:51;38.45;;;29.05;;
73239;SDS011;61452;40.054;4.110;2023-08-17T14:12:54;30.58;;;20.83;;
73239;SDS011;61452;40.054;4.110;2023-08-17T14:17:56;34.70;;;24.08;;
73239;SDS011;61452;40.054;4.110;2023-08-17T14:22:58;39.22;;;31.98;;
73239;SDS011;61452;40.054;4.110;2023-08-17T14:28:03;29.33;;;20.00;;
73239;SDS011;61452;40.054;4.110;2023-08-17T14:33:06;19.15;;;15.52;;
73239;SDS011;61452;40.054;4.110;2023-08-17T14:38:08;17.33;;;12.70;;
73239;SDS011;61452;40.054;4.110;2023-08-17T14:43:14;20.33;;;11.85;;
73239;SDS011;61452;40.054;4.110;2023-08-17T14:48:17;16.23;;;11.13;;
73239;SDS011;61452;40.054;4.110;2023-08-17T14:53:23;17.55;;;10.85;;
73239;SDS011;61452;40.054;4.110;2023-08-17T14:58:25;20.20;;;9.43;;
73239;SDS011;61452;40.054;4.110;2023-08-17T15:03:27;14.70;;;9.25;;
73239;SDS011;61452;40.054;4.110;2023-08-17T15:08:30;13.65;;;9.43;;
73239;SDS011;61452;40.054;4.110;2023-08-17T15:13:32;13.70;;;9.02;;
73239;SDS011;61452;40.054;4.110;2023-08-17T15:18:34;13.38;;;8.40;;
73239;SDS011;61452;40.054;4.110;2023-08-17T15:23:37;15.63;;;9.77;;
73239;SDS011;61452;40.054;4.110;2023-08-17T15:28:40;18.73;;;10.05;;
73239;SDS011;61452;40.054;4.110;2023-08-17T15:33:42;17.90;;;9.35;;
73239;SDS011;61452;40.054;4.110;2023-08-17T15:38:45;17.65;;;9.50;;
73239;SDS011;61452;40.054;4.110;2023-08-17T15:43:47;23.77;;;10.40;;
73239;SDS011;61452;40.054;4.110;2023-08-17T15:48:49;20.63;;;10.02;;
73239;SDS011;61452;40.054;4.110;2023-08-17T15:53:51;18.45;;;10.68;;
73239;SDS011;61452;40.054;4.110;2023-08-17T15:58:54;18.10;;;9.85;;
73239;SDS011;61452;40.054;4.110;2023-08-17T16:03:56;14.57;;;9.73;;
73239;SDS011;61452;40.054;4.110;2023-08-17T16:08:58;18.90;;;9.55;;
73239;SDS011;61452;40.054;4.110;2023-08-17T16:14:00;18.23;;;9.52;;
73239;SDS011;61452;40.054;4.110;2023-08-17T16:19:03;17.15;;;9.25;;
73239;SDS011;61452;40.054;4.110;2023-08-17T16:29:08;16.05;;;8.63;;
73239;SDS011;61452;40.054;4.110;2023-08-17T16:34:10;19.42;;;9.25;;
73239;SDS011;61452;40.054;4.110;2023-08-17T16:39:12;14.70;;;9.40;;
73239;SDS011;61452;40.054;4.110;2023-08-17T16:44:14;25.27;;;14.48;;
73239;SDS011;61452;40.054;4.110;2023-08-17T16:49:17;35.30;;;25.65;;
73239;SDS011;61452;40.054;4.110;2023-08-17T16:54:19;51.17;;;28.00;;
73239;SDS011;61452;40.054;4.110;2023-08-17T16:59:21;34.78;;;22.42;;
73239;SDS011;61452;40.054;4.110;2023-08-17T17:04:24;18.58;;;10.77;;
73239;SDS011;61452;40.054;4.110;2023-08-17T17:09:26;26.80;;;10.98;;
73239;SDS011;61452;40.054;4.110;2023-08-17T17:14:28;18.70;;;11.63;;
73239;SDS011;61452;40.054;4.110;2023-08-17T17:19:30;25.05;;;13.73;;
73239;SDS011;61452;40.054;4.110;2023-08-17T17:24:32;22.98;;;10.88;;
73239;SDS011;61452;40.054;4.110;2023-08-17T17:29:35;20.70;;;12.23;;
73239;SDS011;61452;40.054;4.110;2023-08-17T17:34:37;22.00;;;11.70;;
73239;SDS011;61452;40.054;4.110;2023-08-17T17:39:39;22.05;;;11.95;;
73239;SDS011;61452;40.054;4.110;2023-08-17T17:44:41;20.90;;;11.38;;
73239;SDS011;61452;40.054;4.110;2023-08-17T17:49:44;23.33;;;11.18;;
73239;SDS011;61452;40.054;4.110;2023-08-17T17:54:46;24.15;;;11.95;;
73239;SDS011;61452;40.054;4.110;2023-08-17T17:59:48;24.77;;;11.45;;
73239;SDS011;61452;40.054;4.110;2023-08-17T18:04:52;22.92;;;11.82;;
73239;SDS011;61452;40.054;4.110;2023-08-17T18:09:54;20.75;;;13.18;;
73239;SDS011;61452;40.054;4.110;2023-08-17T18:19:59;19.50;;;11.80;;
73239;SDS011;61452;40.054;4.110;2023-08-17T18:25:02;22.17;;;12.63;;
73239;SDS011;61452;40.054;4.110;2023-08-17T18:30:04;25.85;;;13.00;;
73239;SDS011;61452;40.054;4.110;2023-08-17T18:35:08;60.88;;;38.28;;
73239;SDS011;61452;40.054;4.110;2023-08-17T18:40:10;48.65;;;29.48;;
73239;SDS011;61452;40.054;4.110;2023-08-17T18:45:13;39.90;;;26.20;;
73239;SDS011;61452;40.054;4.110;2023-08-17T18:50:16;50.17;;;30.27;;
73239;SDS011;61452;40.054;4.110;2023-08-17T18:55:18;31.63;;;19.77;;
73239;SDS011;61452;40.054;4.110;2023-08-17T19:00:21;32.85;;;19.52;;
73239;SDS011;61452;40.054;4.110;2023-08-17T19:05:23;37.88;;;22.17;;
73239;SDS011;61452;40.054;4.110;2023-08-17T19:10:26;32.50;;;19.02;;
73239;SDS011;61452;40.054;4.110;2023-08-17T19:15:28;34.08;;;21.65;;
73239;SDS011;61452;40.054;4.110;2023-08-17T19:20:30;34.92;;;20.25;;
73239;SDS011;61452;40.054;4.110;2023-08-17T19:25:32;29.30;;;16.25;;
73239;SDS011;61452;40.054;4.110;2023-08-17T19:30:35;32.83;;;17.00;;
73239;SDS011;61452;40.054;4.110;2023-08-17T19:35:37;29.70;;;19.90;;
73239;SDS011;61452;40.054;4.110;2023-08-17T19:40:39;26.60;;;14.90;;
73239;SDS011;61452;40.054;4.110;2023-08-17T19:45:42;33.20;;;18.58;;
73239;SDS011;61452;40.054;4.110;2023-08-17T19:50:45;29.13;;;15.60;;
73239;SDS011;61452;40.054;4.110;2023-08-17T19:55:47;29.08;;;15.77;;
73239;SDS011;61452;40.054;4.110;2023-08-17T20:00:50;23.23;;;12.55;;
73239;SDS011;61452;40.054;4.110;2023-08-17T20:05:54;29.73;;;14.75;;
73239;SDS011;61452;40.054;4.110;2023-08-17T20:10:57;24.30;;;14.35;;
73239;SDS011;61452;40.054;4.110;2023-08-17T20:16:01;24.48;;;13.05;;
73239;SDS011;61452;40.054;4.110;2023-08-17T20:21:04;21.48;;;11.90;;
73239;SDS011;61452;40.054;4.110;2023-08-17T20:26:07;20.35;;;11.02;;
73239;SDS011;61452;40.054;4.110;2023-08-17T20:31:09;17.17;;;11.35;;
73239;SDS011;61452;40.054;4.110;2023-08-17T20:36:12;24.02;;;13.20;;
73239;SDS011;61452;40.054;4.110;2023-08-17T20:41:14;19.52;;;11.20;;
73239;SDS011;61452;40.054;4.110;2023-08-17T20:46:17;17.85;;;11.27;;
73239;SDS011;61452;40.054;4.110;2023-08-17T20:51:19;17.60;;;11.57;;
73239;SDS011;61452;40.054;4.110;2023-08-17T20:56:21;18.38;;;11.50;;
73239;SDS011;61452;40.054;4.110;2023-08-17T21:01:24;18.23;;;10.55;;
73239;SDS011;61452;40.054;4.110;2023-08-17T21:06:26;20.67;;;10.57;;
73239;SDS011;61452;40.054;4.110;2023-08-17T21:11:28;23.67;;;16.13;;
73239;SDS011;61452;40.054;4.110;2023-08-17T21:16:31;27.65;;;17.38;;
73239;SDS011;61452;40.054;4.110;2023-08-17T21:21:33;32.45;;;18.05;;
73239;SDS011;61452;40.054;4.110;2023-08-17T21:26:35;27.08;;;14.57;;
73239;SDS011;61452;40.054;4.110;2023-08-17T21:31:37;20.75;;;11.43;;
73239;SDS011;61452;40.054;4.110;2023-08-17T21:36:40;18.98;;;11.48;;
73239;SDS011;61452;40.054;4.110;2023-08-17T21:41:42;17.67;;;11.82;;
73239;SDS011;61452;40.054;4.110;2023-08-17T21:46:44;19.50;;;10.10;;
73239;SDS011;61452;40.054;4.110;2023-08-17T21:51:46;26.27;;;11.75;;
73239;SDS011;61452;40.054;4.110;2023-08-17T21:56:50;18.38;;;11.23;;
73239;SDS011;61452;40.054;4.110;2023-08-17T22:01:52;18.88;;;10.40;;
73239;SDS011;61452;40.054;4.110;2023-08-17T22:06:54;18.48;;;10.15;;
73239;SDS011;61452;40.054;4.110;2023-08-17T22:11:57;15.02;;;10.60;;
73239;SDS011;61452;40.054;4.110;2023-08-17T22:16:59;24.77;;;11.25;;
73239;SDS011;61452;40.054;4.110;2023-08-17T22:22:01;20.30;;;10.73;;
73239;SDS011;61452;40.054;4.110;2023-08-17T22:27:06;16.33;;;10.07;;
73239;SDS011;61452;40.054;4.110;2023-08-17T22:32:08;14.93;;;10.27;;
73239;SDS011;61452;40.054;4.110;2023-08-17T22:37:10;13.40;;;10.23;;
73239;SDS011;61452;40.054;4.110;2023-08-17T22:42:13;17.25;;;10.55;;
73239;SDS011;61452;40.054;4.110;2023-08-17T22:47:15;16.15;;;10.82;;
73239;SDS011;61452;40.054;4.110;2023-08-17T22:52:18;18.58;;;10.60;;
73239;SDS011;61452;40.054;4.110;2023-08-17T22:57:20;17.08;;;11.15;;
73239;SDS011;61452;40.054;4.110;2023-08-17T23:02:22;18.08;;;10.65;;
73239;SDS011;61452;40.054;4.110;2023-08-17T23:07:24;15.15;;;10.23;;
73239;SDS011;61452;40.054;4.110;2023-08-17T23:12:27;17.02;;;11.35;;
73239;SDS011;61452;40.054;4.110;2023-08-17T23:17:29;19.23;;;11.63;;
73239;SDS011;61452;40.054;4.110;2023-08-17T23:22:32;20.52;;;12.00;;
73239;SDS011;61452;40.054;4.110;2023-08-17T23:27:34;16.45;;;10.95;;
73239;SDS011;61452;40.054;4.110;2023-08-17T23:32:36;17.55;;;11.27;;
73239;SDS011;61452;40.054;4.110;2023-08-17T23:37:39;18.67;;;12.23;;
73239;SDS011;61452;40.054;4.110;2023-08-17T23:42:41;18.27;;;12.68;;
73239;SDS011;61452;40.054;4.110;2023-08-17T23:47:44;16.45;;;11.52;;
73239;SDS011;61452;40.054;4.110;2023-08-17T23:52:46;19.30;;;11.60;;
73239;SDS011;61452;40.054;4.110;2023-08-17T23:57:48;16.33;;;11.18;;
